createdAt,value
2023-02-15T05:00:42.978Z,99.99
2023-02-15T05:01:42.363Z,99.99
2023-02-15T05:02:42.374Z,99.99
2023-02-15T05:03:42.348Z,99.99
2023-02-15T05:04:42.342Z,99.99
2023-02-15T05:05:42.315Z,99.99
2023-02-15T05:06:42.591Z,99.99
2023-02-15T05:07:42.289Z,99.99
2023-02-15T05:08:42.300Z,99.99
2023-02-15T05:09:42.262Z,99.99
2023-02-15T05:10:42.292Z,99.99
2023-02-15T05:11:42.302Z,99.99
2023-02-15T05:12:42.317Z,99.99
2023-02-15T05:13:42.216Z,99.99
2023-02-15T05:14:42.227Z,99.99
2023-02-15T05:15:44.658Z,99.99
2023-02-15T05:16:42.252Z,99.99
2023-02-15T05:17:42.217Z,99.99
2023-02-15T05:18:42.173Z,99.99
2023-02-15T05:19:42.158Z,99.99
2023-02-15T05:20:42.165Z,99.99
2023-02-15T05:21:42.125Z,99.99
2023-02-15T05:22:42.198Z,99.99
2023-02-15T05:23:42.103Z,99.99
2023-02-15T05:24:42.097Z,99.99
2023-02-15T05:25:42.085Z,99.99
2023-02-15T05:26:42.080Z,99.99
2023-02-15T05:27:42.058Z,99.99
2023-02-15T05:28:42.124Z,99.99
2023-02-15T05:29:42.043Z,99.99
2023-02-15T05:30:42.168Z,99.99
2023-02-15T05:31:42.240Z,99.99
2023-02-15T05:32:42.188Z,99.99
2023-02-15T05:33:42.024Z,99.99
2023-02-15T05:34:42.004Z,99.99
2023-02-15T05:35:41.959Z,99.99
2023-02-15T05:36:42.012Z,99.99
2023-02-15T05:37:41.948Z,99.99
2023-02-15T05:38:41.995Z,99.99
2023-02-15T05:39:49.449Z,99.99
2023-02-15T05:40:41.944Z,99.99
2023-02-15T05:41:41.895Z,99.99
2023-02-15T05:42:41.900Z,99.99
2023-02-15T05:43:41.999Z,99.99
2023-02-15T05:44:41.904Z,99.99
2023-02-15T05:45:41.894Z,99.99
2023-02-15T05:46:41.880Z,99.99
2023-02-15T05:47:41.817Z,99.99
2023-02-15T05:48:41.848Z,99.99
2023-02-15T05:49:41.879Z,99.99
2023-02-15T05:50:41.827Z,99.99
2023-02-15T05:51:41.786Z,99.99
2023-02-15T05:52:41.918Z,99.99
2023-02-15T05:53:41.751Z,99.99
2023-02-15T05:54:41.856Z,99.99
2023-02-15T05:55:42.416Z,99.99
2023-02-15T05:56:41.734Z,99.99
2023-02-15T05:57:41.722Z,99.99
2023-02-15T05:58:41.719Z,99.99
2023-02-15T05:59:41.754Z,99.99
2023-02-15T06:00:41.693Z,99.99
2023-02-15T06:01:42.035Z,99.99
2023-02-15T06:02:41.761Z,99.99
2023-02-15T06:03:41.705Z,99.99
2023-02-15T06:04:41.663Z,99.99
2023-02-15T06:05:41.631Z,99.99
2023-02-15T06:06:41.621Z,99.99
2023-02-15T06:07:41.705Z,99.99
2023-02-15T06:08:48.622Z,99.99
2023-02-15T06:09:41.550Z,99.99
2023-02-15T06:10:41.699Z,99.99
2023-02-15T06:11:41.528Z,99.99
2023-02-15T06:12:41.519Z,99.99
2023-02-15T06:13:41.552Z,99.99
2023-02-15T06:14:41.498Z,99.99
2023-02-15T06:15:41.498Z,99.99
2023-02-15T06:16:41.603Z,99.99
2023-02-15T06:17:41.484Z,99.99
2023-02-15T06:18:41.982Z,99.99
2023-02-15T06:19:41.430Z,99.99
2023-02-15T06:20:41.451Z,99.99
2023-02-15T06:21:41.407Z,99.99
2023-02-15T06:22:41.458Z,99.99
2023-02-15T06:23:41.456Z,99.99
2023-02-15T06:24:41.563Z,99.99
2023-02-15T06:25:41.361Z,99.99
2023-02-15T06:26:41.396Z,99.99
2023-02-15T06:27:41.417Z,99.99
2023-02-15T06:28:41.360Z,99.99
2023-02-15T06:29:41.911Z,99.99
2023-02-15T06:30:41.402Z,99.99
2023-02-15T06:31:41.389Z,99.99
2023-02-15T06:32:41.363Z,99.99
2023-02-15T06:33:41.282Z,99.99
2023-02-15T06:34:41.260Z,99.99
2023-02-15T06:35:41.277Z,99.99
2023-02-15T06:36:41.261Z,99.99
2023-02-15T06:37:41.222Z,99.99
2023-02-15T06:38:41.234Z,99.99
2023-02-15T06:39:41.192Z,99.99
2023-02-15T06:40:41.199Z,99.99
2023-02-15T06:41:41.241Z,99.99
2023-02-15T06:42:41.203Z,99.99
2023-02-15T06:43:41.248Z,99.99
2023-02-15T06:44:41.180Z,99.99
2023-02-15T06:45:41.141Z,99.99
2023-02-15T06:46:41.211Z,99.99
2023-02-15T06:47:41.286Z,99.99
2023-02-15T06:48:41.116Z,99.99
2023-02-15T06:49:41.064Z,99.99
2023-02-15T06:50:41.070Z,99.99
2023-02-15T06:51:41.055Z,99.99
2023-02-15T06:52:41.069Z,99.99
2023-02-15T06:53:41.098Z,99.99
2023-02-15T06:54:41.041Z,99.99
2023-02-15T06:55:41.004Z,99.99
2023-02-15T06:56:40.991Z,99.99
2023-02-15T06:57:40.968Z,99.99
2023-02-15T06:58:40.966Z,99.99
2023-02-15T06:59:41.008Z,99.99
2023-02-15T07:00:40.965Z,99.99
2023-02-15T07:01:40.968Z,99.99
2023-02-15T07:02:40.916Z,99.99
2023-02-15T07:03:40.887Z,99.99
2023-02-15T07:04:40.941Z,99.99
2023-02-15T07:05:40.974Z,99.99
2023-02-15T07:06:40.888Z,99.99
2023-02-15T07:07:40.865Z,99.99
2023-02-15T07:08:40.831Z,99.99
2023-02-15T07:09:40.811Z,99.99
2023-02-15T07:10:40.869Z,99.99
2023-02-15T07:11:40.783Z,99.99
2023-02-15T07:12:40.818Z,99.99
2023-02-15T07:13:40.749Z,99.99
2023-02-15T07:14:40.815Z,99.99
2023-02-15T07:15:40.832Z,99.99
2023-02-15T07:16:40.728Z,99.99
2023-02-15T07:17:40.696Z,99.99
2023-02-15T07:18:40.715Z,99.99
2023-02-15T07:19:40.687Z,99.99
2023-02-15T07:20:40.744Z,99.99
2023-02-15T07:21:40.664Z,99.99
2023-02-15T07:22:40.655Z,99.99
2023-02-15T07:23:40.631Z,99.99
2023-02-15T07:24:40.647Z,99.99
2023-02-15T07:25:40.670Z,99.99
2023-02-15T07:26:40.601Z,99.99
2023-02-15T07:27:40.585Z,99.99
2023-02-15T07:28:40.609Z,99.99
2023-02-15T07:29:40.559Z,99.99
2023-02-15T07:30:40.632Z,99.99
2023-02-15T07:31:40.518Z,99.99
2023-02-15T07:32:40.562Z,99.99
2023-02-15T07:33:40.517Z,99.99
2023-02-15T07:34:40.520Z,99.99
2023-02-15T07:35:41.166Z,99.99
2023-02-15T07:36:40.478Z,99.99
2023-02-15T07:37:40.446Z,99.99
2023-02-15T07:38:40.471Z,99.99
2023-02-15T07:39:40.451Z,99.99
2023-02-15T07:40:40.441Z,99.99
2023-02-15T07:41:41.035Z,99.99
2023-02-15T07:42:40.404Z,99.99
2023-02-15T07:43:40.377Z,99.99
2023-02-15T07:44:40.386Z,99.99
2023-02-15T07:45:40.335Z,99.99
2023-02-15T07:46:40.396Z,99.99
2023-02-15T07:47:40.937Z,99.99
2023-02-15T07:48:40.361Z,99.99
2023-02-15T07:49:40.313Z,99.99
2023-02-15T07:50:40.301Z,99.99
2023-02-15T07:51:40.304Z,99.99
2023-02-15T07:52:40.304Z,99.99
2023-02-15T07:53:41.051Z,99.99
2023-02-15T07:54:40.260Z,99.99
2023-02-15T07:55:40.230Z,99.99
2023-02-15T07:56:40.246Z,99.99
2023-02-15T07:57:40.179Z,99.99
2023-02-15T07:58:40.227Z,99.99
2023-02-15T07:59:41.070Z,99.99
2023-02-15T08:00:47.180Z,99.99
2023-02-15T08:01:42.832Z,99.99
2023-02-15T08:02:41.939Z,99.99
2023-02-15T08:03:40.259Z,99.99
2023-02-15T08:04:40.108Z,99.13
2023-02-15T08:05:42.450Z,98.34
2023-02-15T08:06:40.063Z,98.55
2023-02-15T08:07:40.176Z,98.49
2023-02-15T08:08:40.057Z,99.57
2023-02-15T08:09:40.049Z,99.99
2023-02-15T08:10:40.020Z,99.99
2023-02-15T08:11:40.109Z,99.99
2023-02-15T08:12:40.011Z,99.99
2023-02-15T08:13:39.997Z,99.99
2023-02-15T08:14:39.995Z,99.99
2023-02-15T08:15:39.982Z,99.99
2023-02-15T08:16:40.075Z,99.99
2023-02-15T08:17:40.411Z,99.99
2023-02-15T08:18:39.920Z,99.99
2023-02-15T08:19:39.929Z,99.99
2023-02-15T08:20:39.910Z,99.99
2023-02-15T08:21:39.968Z,99.99
2023-02-15T08:22:39.882Z,99.99
2023-02-15T08:23:41.101Z,99.99
2023-02-15T08:24:39.852Z,99.99
2023-02-15T08:25:39.852Z,99.99
2023-02-15T08:26:41.978Z,99.99
2023-02-15T08:27:39.859Z,99.99
2023-02-15T08:28:40.109Z,99.99
2023-02-15T08:29:40.658Z,99.99
2023-02-15T08:30:39.769Z,99.99
2023-02-15T08:31:39.866Z,99.99
2023-02-15T08:32:39.747Z,99.99
2023-02-15T08:33:39.751Z,99.99
2023-02-15T08:34:39.737Z,99.99
2023-02-15T08:35:40.557Z,99.99
2023-02-15T08:36:39.704Z,99.99
2023-02-15T08:37:39.734Z,99.99
2023-02-15T08:38:39.689Z,99.99
2023-02-15T08:39:39.689Z,99.99
2023-02-15T08:40:39.695Z,99.99
2023-02-15T08:41:40.085Z,99.99
2023-02-15T08:42:39.635Z,99.99
2023-02-15T08:43:39.655Z,99.99
2023-02-15T08:44:39.609Z,99.99
2023-02-15T08:45:39.636Z,99.99
2023-02-15T08:46:39.630Z,99.99
2023-02-15T08:47:40.345Z,99.99
2023-02-15T08:48:39.572Z,99.99
2023-02-15T08:49:39.546Z,99.99
2023-02-15T08:50:39.548Z,99.99
2023-02-15T08:51:39.573Z,99.99
2023-02-15T08:52:39.495Z,99.99
2023-02-15T08:53:39.804Z,99.99
2023-02-15T08:54:39.596Z,99.99
2023-02-15T08:55:39.482Z,99.99
2023-02-15T08:56:39.435Z,99.99
2023-02-15T08:57:39.456Z,99.99
2023-02-15T08:58:39.457Z,99.99
2023-02-15T08:59:39.710Z,99.99
2023-02-15T09:00:39.469Z,99.99
2023-02-15T09:01:39.460Z,99.99
2023-02-15T09:02:39.428Z,99.99
2023-02-15T09:03:39.440Z,99.99
2023-02-15T09:04:39.384Z,99.99
2023-02-15T09:05:40.166Z,99.99
2023-02-15T09:06:39.348Z,99.99
2023-02-15T09:07:39.357Z,99.99
2023-02-15T09:08:39.303Z,99.99
2023-02-15T09:09:39.307Z,99.99
2023-02-15T09:10:39.277Z,99.99
2023-02-15T09:11:39.356Z,99.99
2023-02-15T09:12:39.249Z,99.99
2023-02-15T09:13:39.276Z,99.99
2023-02-15T09:14:39.255Z,99.99
2023-02-15T09:15:39.237Z,99.99
2023-02-15T09:16:39.572Z,99.99
2023-02-15T09:17:39.207Z,99.99
2023-02-15T09:18:39.180Z,99.99
2023-02-15T09:19:39.182Z,99.99
2023-02-15T09:20:39.190Z,99.99
2023-02-15T09:21:39.273Z,99.99
2023-02-15T09:22:39.155Z,99.99
2023-02-15T09:23:39.121Z,99.99
2023-02-15T09:24:39.097Z,99.99
2023-02-15T09:25:39.097Z,99.99
2023-02-15T09:26:39.115Z,99.99
2023-02-15T09:27:39.122Z,99.99
2023-02-15T09:28:39.036Z,99.99
2023-02-15T09:29:39.072Z,99.99
2023-02-15T09:30:39.155Z,99.99
2023-02-15T09:31:39.036Z,99.99
2023-02-15T09:32:39.084Z,99.99
2023-02-15T09:33:39.006Z,99.99
2023-02-15T09:34:38.976Z,99.99
2023-02-15T09:35:38.960Z,99.99
2023-02-15T09:36:38.977Z,99.99
2023-02-15T09:37:39.044Z,99.99
2023-02-15T09:38:38.921Z,99.99
2023-02-15T09:39:38.922Z,99.99
2023-02-15T09:40:38.887Z,99.99
2023-02-15T09:41:38.893Z,99.99
2023-02-15T09:42:39.232Z,99.99
2023-02-15T09:43:45.863Z,99.99
2023-02-15T09:44:45.850Z,99.99
2023-02-15T09:45:45.896Z,99.99
2023-02-15T09:46:45.820Z,99.99
2023-02-15T09:47:38.800Z,99.99
2023-02-15T09:48:38.905Z,99.99
2023-02-15T09:49:38.817Z,99.99
2023-02-15T09:50:38.764Z,99.99
2023-02-15T09:51:38.772Z,99.99
2023-02-15T09:52:38.831Z,99.99
2023-02-15T09:53:38.765Z,99.99
2023-02-15T09:54:39.174Z,99.99
2023-02-15T09:55:38.712Z,99.99
2023-02-15T09:56:38.740Z,99.99
2023-02-15T09:57:38.694Z,99.99
2023-02-15T09:58:38.674Z,99.99
2023-02-15T09:59:38.688Z,99.99
2023-02-15T10:00:38.727Z,99.99
2023-02-15T10:01:38.840Z,99.99
2023-02-15T10:02:38.603Z,99.99
2023-02-15T10:03:38.624Z,99.99
2023-02-15T10:04:38.716Z,99.99
2023-02-15T10:05:39.028Z,99.99
2023-02-15T10:06:38.562Z,99.99
2023-02-15T10:07:38.566Z,99.99
2023-02-15T10:08:38.538Z,99.99
2023-02-15T10:09:38.541Z,99.85
2023-02-15T10:10:38.522Z,99.99
2023-02-15T10:11:39.392Z,99.54
2023-02-15T10:12:38.473Z,99.99
2023-02-15T10:13:38.481Z,99.99
2023-02-15T10:14:38.472Z,99.99
2023-02-15T10:15:38.494Z,99.96
2023-02-15T10:16:38.530Z,99.99
2023-02-15T10:17:38.707Z,98.10
2023-02-15T10:18:38.400Z,96.85
2023-02-15T10:19:38.428Z,97.68
2023-02-15T10:20:38.378Z,97.89
2023-02-15T10:21:38.371Z,97.89
2023-02-15T10:22:38.427Z,98.36
2023-02-15T10:23:38.484Z,98.68
2023-02-15T10:24:41.328Z,98.32
2023-02-15T10:25:38.399Z,97.38
2023-02-15T10:26:38.415Z,96.24
2023-02-15T10:27:38.451Z,95.37
2023-02-15T10:28:38.562Z,95.68
2023-02-15T10:29:38.278Z,93.91
2023-02-15T10:30:38.500Z,94.64
2023-02-15T10:31:38.440Z,93.81
2023-02-15T10:32:38.214Z,93.04
2023-02-15T10:33:38.244Z,93.50
2023-02-15T10:34:38.495Z,93.77
2023-02-15T10:35:38.204Z,93.15
2023-02-15T10:36:38.161Z,92.01
2023-02-15T10:37:38.186Z,91.45
2023-02-15T10:38:38.155Z,91.35
2023-02-15T10:39:38.176Z,90.83
2023-02-15T10:40:38.223Z,90.93
2023-02-15T10:41:38.129Z,90.93
2023-02-15T10:42:38.125Z,90.99
2023-02-15T10:43:38.103Z,90.99
2023-02-15T10:44:38.229Z,90.58
2023-02-15T10:45:39.435Z,90.06
2023-02-15T10:46:38.120Z,90.68
2023-02-15T10:47:38.049Z,91.26
2023-02-15T10:48:38.016Z,89.81
2023-02-15T10:49:38.023Z,88.98
2023-02-15T10:50:38.201Z,89.71
2023-02-15T10:51:38.795Z,88.43
2023-02-15T10:52:38.025Z,88.32
2023-02-15T10:53:37.987Z,88.64
2023-02-15T10:54:37.929Z,89.04
2023-02-15T10:55:37.938Z,89.67
2023-02-15T10:56:37.908Z,89.01
2023-02-15T10:57:38.033Z,88.70
2023-02-15T10:58:37.886Z,88.90
2023-02-15T10:59:37.901Z,88.07
2023-02-15T11:00:37.861Z,87.56
2023-02-15T11:01:37.953Z,87.76
2023-02-15T11:02:37.869Z,86.18
2023-02-15T11:03:37.924Z,85.45
2023-02-15T11:04:37.814Z,85.55
2023-02-15T11:05:37.840Z,86.13
2023-02-15T11:06:37.799Z,86.03
2023-02-15T11:07:37.816Z,86.96
2023-02-15T11:08:37.830Z,85.21
2023-02-15T11:09:37.774Z,84.28
2023-02-15T11:10:37.743Z,84.48
2023-02-15T11:11:37.743Z,83.62
2023-02-15T11:12:37.707Z,84.13
2023-02-15T11:13:37.812Z,83.20
2023-02-15T11:14:44.703Z,83.68
2023-02-15T11:15:37.764Z,82.75
2023-02-15T11:16:37.669Z,82.65
2023-02-15T11:17:37.655Z,81.72
2023-02-15T11:18:38.485Z,81.99
2023-02-15T11:19:37.639Z,81.58
2023-02-15T11:20:37.603Z,78.49
2023-02-15T11:21:37.628Z,79.11
2023-02-15T11:22:37.586Z,78.38
2023-02-15T11:23:37.596Z,79.21
2023-02-15T11:24:37.645Z,80.00
2023-02-15T11:25:37.547Z,78.66
2023-02-15T11:26:37.539Z,78.86
2023-02-15T11:27:37.631Z,78.55
2023-02-15T11:28:37.492Z,76.49
2023-02-15T11:29:38.093Z,75.73
2023-02-15T11:30:37.465Z,74.71
2023-02-15T11:31:37.625Z,75.63
2023-02-15T11:32:37.434Z,75.32
2023-02-15T11:33:37.452Z,75.90
2023-02-15T11:34:37.459Z,74.67
2023-02-15T11:35:37.518Z,74.77
2023-02-15T11:36:37.383Z,73.23
2023-02-15T11:37:37.404Z,73.64
2023-02-15T11:38:37.362Z,73.95
2023-02-15T11:39:38.382Z,74.33
2023-02-15T11:40:38.509Z,72.68
2023-02-15T11:41:37.339Z,71.86
2023-02-15T11:42:37.319Z,72.16
2023-02-15T11:43:37.318Z,72.16
2023-02-15T11:44:37.300Z,72.68
2023-02-15T11:45:37.288Z,71.92
2023-02-15T11:46:38.890Z,71.10
2023-02-15T11:47:37.282Z,71.31
2023-02-15T11:48:37.224Z,71.48
2023-02-15T11:49:37.252Z,70.66
2023-02-15T11:50:37.210Z,69.94
2023-02-15T11:51:37.229Z,70.45
2023-02-15T11:52:37.705Z,70.04
2023-02-15T11:53:37.196Z,70.56
2023-02-15T11:54:37.156Z,68.50
2023-02-15T11:55:37.156Z,69.60
2023-02-15T11:56:37.123Z,69.18
2023-02-15T11:57:37.136Z,69.70
2023-02-15T11:58:40.132Z,70.62
2023-02-15T11:59:37.106Z,71.24
2023-02-15T12:00:37.092Z,71.34
2023-02-15T12:01:37.102Z,70.79
2023-02-15T12:02:37.065Z,70.08
2023-02-15T12:03:37.064Z,69.67
2023-02-15T12:04:37.051Z,69.74
2023-02-15T12:05:37.032Z,69.53
2023-02-15T12:06:36.992Z,69.94
2023-02-15T12:07:37.003Z,69.64
2023-02-15T12:08:37.018Z,70.36
2023-02-15T12:09:37.070Z,70.76
2023-02-15T12:10:36.939Z,70.25
2023-02-15T12:11:36.945Z,70.97
2023-02-15T12:12:36.926Z,70.25
2023-02-15T12:13:36.914Z,69.19
2023-02-15T12:14:36.955Z,67.55
2023-02-15T12:15:36.870Z,67.86
2023-02-15T12:16:36.879Z,68.37
2023-02-15T12:17:36.866Z,68.57
2023-02-15T12:18:36.905Z,68.03
2023-02-15T12:19:36.924Z,68.65
2023-02-15T12:20:36.835Z,67.41
2023-02-15T12:21:36.807Z,67.21
2023-02-15T12:22:36.798Z,67.41
2023-02-15T12:23:36.767Z,67.41
2023-02-15T12:24:36.795Z,67.90
2023-02-15T12:25:36.872Z,66.67
2023-02-15T12:26:36.758Z,66.56
2023-02-15T12:27:36.730Z,66.87
2023-02-15T12:28:38.994Z,66.77
2023-02-15T12:29:36.713Z,66.36
2023-02-15T12:30:36.743Z,65.00
2023-02-15T12:31:36.900Z,65.20
2023-02-15T12:32:36.713Z,65.41
2023-02-15T12:33:36.641Z,65.71
2023-02-15T12:34:36.651Z,65.81
2023-02-15T12:35:37.028Z,64.65
2023-02-15T12:36:36.699Z,62.19
2023-02-15T12:37:36.640Z,62.81
2023-02-15T12:38:36.781Z,61.27
2023-02-15T12:39:36.729Z,60.86
2023-02-15T12:40:36.580Z,61.38
2023-02-15T12:41:36.644Z,60.02
2023-02-15T12:42:36.553Z,59.20
2023-02-15T12:43:36.529Z,59.09
2023-02-15T12:44:36.522Z,58.17
2023-02-15T12:45:36.502Z,58.07
2023-02-15T12:46:38.423Z,58.48
2023-02-15T12:47:36.571Z,58.58
2023-02-15T12:48:40.702Z,58.17
2023-02-15T12:49:36.453Z,57.25
2023-02-15T12:50:36.489Z,57.53
2023-02-15T12:51:36.420Z,57.84
2023-02-15T12:52:36.458Z,56.82
2023-02-15T12:53:36.643Z,57.02
2023-02-15T12:54:36.431Z,57.51
2023-02-15T12:55:36.360Z,58.22
2023-02-15T12:56:36.368Z,57.71
2023-02-15T12:57:36.341Z,57.68
2023-02-15T12:58:36.364Z,57.58
2023-02-15T12:59:36.971Z,56.87
2023-02-15T13:00:36.332Z,57.48
2023-02-15T13:01:36.288Z,56.87
2023-02-15T13:02:36.310Z,57.17
2023-02-15T13:03:36.327Z,56.76
2023-02-15T13:04:36.279Z,56.15
2023-02-15T13:05:36.286Z,55.84
2023-02-15T13:06:36.252Z,56.25
2023-02-15T13:07:36.222Z,56.02
2023-02-15T13:08:36.222Z,56.63
2023-02-15T13:09:36.203Z,56.74
2023-02-15T13:10:36.250Z,57.35
2023-02-15T13:11:36.164Z,57.22
2023-02-15T13:12:36.182Z,56.71
2023-02-15T13:13:36.622Z,55.89
2023-02-15T13:14:36.138Z,56.40
2023-02-15T13:15:36.270Z,57.53
2023-02-15T13:16:36.233Z,56.58
2023-02-15T13:17:36.109Z,57.09
2023-02-15T13:18:36.100Z,56.68
2023-02-15T13:19:36.066Z,56.68
2023-02-15T13:20:36.081Z,55.15
2023-02-15T13:21:36.086Z,55.15
2023-02-15T13:22:36.048Z,55.63
2023-02-15T13:23:36.509Z,55.23
2023-02-15T13:24:36.039Z,55.94
2023-02-15T13:25:35.982Z,55.94
2023-02-15T13:26:36.190Z,56.66
2023-02-15T13:27:35.965Z,56.45
2023-02-15T13:28:35.976Z,56.23
2023-02-15T13:29:36.346Z,55.20
2023-02-15T13:30:35.974Z,54.90
2023-02-15T13:31:35.986Z,55.51
2023-02-15T13:32:36.188Z,55.00
2023-02-15T13:33:35.887Z,55.61
2023-02-15T13:34:35.894Z,55.20
2023-02-15T13:35:35.864Z,54.79
2023-02-15T13:36:35.857Z,54.18
2023-02-15T13:37:35.825Z,54.97
2023-02-15T13:38:36.591Z,54.57
2023-02-15T13:39:36.024Z,55.48
2023-02-15T13:40:35.952Z,55.28
2023-02-15T13:41:36.882Z,54.67
2023-02-15T13:42:35.929Z,54.57
2023-02-15T13:43:36.206Z,54.33
2023-02-15T13:44:36.295Z,54.85
2023-02-15T13:45:35.914Z,54.54
2023-02-15T13:46:36.004Z,53.72
2023-02-15T13:47:35.868Z,53.62
2023-02-15T13:48:46.891Z,53.52
2023-02-15T13:49:36.927Z,54.13
2023-02-15T13:50:35.690Z,54.31
2023-02-15T13:51:36.381Z,53.90
2023-02-15T13:52:35.666Z,54.61
2023-02-15T13:53:36.440Z,54.92
2023-02-15T13:54:35.714Z,54.82
2023-02-15T13:55:35.750Z,54.00
2023-02-15T13:56:35.618Z,54.31
2023-02-15T13:57:35.612Z,54.11
2023-02-15T13:58:35.600Z,53.50
2023-02-15T13:59:35.568Z,52.78
2023-02-15T14:00:35.595Z,53.19
2023-02-15T14:01:39.466Z,53.80
2023-02-15T14:02:35.601Z,53.29
2023-02-15T14:03:35.497Z,54.21
2023-02-15T14:04:35.571Z,53.59
2023-02-15T14:05:35.566Z,53.90
2023-02-15T14:06:35.599Z,54.51
2023-02-15T14:07:35.550Z,54.61
2023-02-15T14:08:35.457Z,54.08
2023-02-15T14:09:35.414Z,53.98
2023-02-15T14:10:35.507Z,54.49
2023-02-15T14:11:35.401Z,54.08
2023-02-15T14:12:35.450Z,54.05
2023-02-15T14:13:35.455Z,54.66
2023-02-15T14:14:35.394Z,53.55
2023-02-15T14:15:35.789Z,53.98
2023-02-15T14:16:35.467Z,54.39
2023-02-15T14:17:35.320Z,52.96
2023-02-15T14:18:35.317Z,52.66
2023-02-15T14:19:35.273Z,52.66
2023-02-15T14:20:35.365Z,53.06
2023-02-15T14:21:35.248Z,53.57
2023-02-15T14:22:35.258Z,53.47
2023-02-15T14:23:35.421Z,53.67
2023-02-15T14:24:35.677Z,52.35
2023-02-15T14:25:35.999Z,53.88
2023-02-15T14:26:35.303Z,52.25
2023-02-15T14:27:35.241Z,51.74
2023-02-15T14:28:35.225Z,51.43
2023-02-15T14:29:35.239Z,51.10
2023-02-15T14:30:36.011Z,51.41
2023-02-15T14:31:35.578Z,51.10
2023-02-15T14:32:35.141Z,50.70
2023-02-15T14:33:35.953Z,51.48
2023-02-15T14:34:35.108Z,51.18
2023-02-15T14:35:35.060Z,51.28
2023-02-15T14:36:35.708Z,51.48
2023-02-15T14:37:35.026Z,50.29
2023-02-15T14:38:35.040Z,51.31
2023-02-15T14:39:35.001Z,50.87
2023-02-15T14:40:35.018Z,51.39
2023-02-15T14:41:34.969Z,51.69
2023-02-15T14:42:35.126Z,52.40
2023-02-15T14:43:34.975Z,51.48
2023-02-15T14:44:42.712Z,51.06
2023-02-15T14:45:35.096Z,50.78
2023-02-15T14:46:41.959Z,50.45
2023-02-15T14:47:34.981Z,49.96
2023-02-15T14:48:41.925Z,50.16
2023-02-15T14:49:41.913Z,51.67
2023-02-15T14:50:34.889Z,50.45
2023-02-15T14:51:41.862Z,50.65
2023-02-15T14:52:41.921Z,50.85
2023-02-15T14:53:34.823Z,50.85
2023-02-15T14:54:34.832Z,50.85
2023-02-15T14:55:34.901Z,50.55
2023-02-15T14:56:34.810Z,50.75
2023-02-15T14:57:36.346Z,50.85
2023-02-15T14:58:34.794Z,52.17
2023-02-15T14:59:34.751Z,50.95
2023-02-15T15:00:34.772Z,50.04
2023-02-15T15:01:34.777Z,50.45
2023-02-15T15:02:34.742Z,50.67
2023-02-15T15:03:35.079Z,51.28
2023-02-15T15:04:34.702Z,51.16
2023-02-15T15:05:34.744Z,50.75
2023-02-15T15:06:34.690Z,51.46
2023-02-15T15:07:34.660Z,50.95
2023-02-15T15:08:34.690Z,50.24
2023-02-15T15:09:34.713Z,50.65
2023-02-15T15:10:34.638Z,50.24
2023-02-15T15:11:43.438Z,50.95
2023-02-15T15:12:35.615Z,50.85
2023-02-15T15:13:34.614Z,50.95
2023-02-15T15:14:34.598Z,50.45
2023-02-15T15:15:34.732Z,50.78
2023-02-15T15:16:34.569Z,50.47
2023-02-15T15:17:34.664Z,51.48
2023-02-15T15:18:34.522Z,52.20
2023-02-15T15:19:50.792Z,52.00
2023-02-15T15:20:35.562Z,50.78
2023-02-15T15:21:34.466Z,50.06
2023-02-15T15:22:34.475Z,50.37
2023-02-15T15:23:34.542Z,50.87
2023-02-15T15:24:34.445Z,49.35
2023-02-15T15:25:34.445Z,49.33
2023-02-15T15:26:34.421Z,49.12
2023-02-15T15:27:34.377Z,49.33
2023-02-15T15:28:34.400Z,49.33
2023-02-15T15:29:34.359Z,49.96
2023-02-15T15:30:34.458Z,49.55
2023-02-15T15:31:34.443Z,50.26
2023-02-15T15:32:34.380Z,50.16
2023-02-15T15:33:34.321Z,50.59
2023-02-15T15:34:34.310Z,52.02
2023-02-15T15:35:34.346Z,51.41
2023-02-15T15:36:34.288Z,51.51
2023-02-15T15:37:34.253Z,51.41
2023-02-15T15:38:34.260Z,51.00
2023-02-15T15:39:34.220Z,51.00
2023-02-15T15:40:34.355Z,51.20
2023-02-15T15:41:34.191Z,51.23
2023-02-15T15:42:34.197Z,51.33
2023-02-15T15:43:34.258Z,51.33
2023-02-15T15:44:34.969Z,51.53
2023-02-15T15:45:34.887Z,51.74
2023-02-15T15:46:34.809Z,51.43
2023-02-15T15:47:34.177Z,51.33
2023-02-15T15:48:34.124Z,51.23
2023-02-15T15:49:34.275Z,51.43
2023-02-15T15:50:34.122Z,50.82
2023-02-15T15:51:34.198Z,50.82
2023-02-15T15:52:34.077Z,51.53
2023-02-15T15:53:34.053Z,51.53
2023-02-15T15:54:34.074Z,50.92
2023-02-15T15:55:34.083Z,50.82
2023-02-15T15:56:34.171Z,50.92
2023-02-15T15:57:34.037Z,51.74
2023-02-15T15:58:33.993Z,51.74
2023-02-15T15:59:33.989Z,51.13
2023-02-15T16:00:33.982Z,51.23
2023-02-15T16:01:34.071Z,51.66
2023-02-15T16:02:33.976Z,51.76
2023-02-15T16:03:34.071Z,52.58
2023-02-15T16:04:33.912Z,53.59
2023-02-15T16:05:33.960Z,54.21
2023-02-15T16:06:33.906Z,55.43
2023-02-15T16:07:33.854Z,55.97
2023-02-15T16:08:33.870Z,56.48
2023-02-15T16:09:33.989Z,56.99
2023-02-15T16:10:33.825Z,57.21
2023-02-15T16:11:34.474Z,57.52
2023-02-15T16:12:33.804Z,57.93
2023-02-15T16:13:33.782Z,58.23
2023-02-15T16:14:33.900Z,58.26
2023-02-15T16:15:33.787Z,58.47
2023-02-15T16:16:33.756Z,58.26
2023-02-15T16:17:34.862Z,58.26
2023-02-15T16:18:33.711Z,58.57
2023-02-15T16:19:33.717Z,58.87
2023-02-15T16:20:33.683Z,59.11
2023-02-15T16:21:33.693Z,59.21
2023-02-15T16:22:33.651Z,59.41
2023-02-15T16:23:34.523Z,59.75
2023-02-15T16:24:33.640Z,60.26
2023-02-15T16:25:33.653Z,60.28
2023-02-15T16:26:33.602Z,60.69
2023-02-15T16:27:33.611Z,61.34
2023-02-15T16:28:33.584Z,61.34
2023-02-15T16:29:34.791Z,61.57
2023-02-15T16:30:33.630Z,62.08
2023-02-15T16:31:33.724Z,62.42
2023-02-15T16:32:33.558Z,63.68
2023-02-15T16:33:33.538Z,63.68
2023-02-15T16:34:33.578Z,63.60
2023-02-15T16:35:34.045Z,64.42
2023-02-15T16:36:33.484Z,64.76
2023-02-15T16:37:33.489Z,65.68
2023-02-15T16:38:33.446Z,66.33
2023-02-15T16:39:33.450Z,66.84
2023-02-15T16:40:33.504Z,66.25
2023-02-15T16:41:33.463Z,66.56
2023-02-15T16:42:33.399Z,67.00
2023-02-15T16:43:33.535Z,67.21
2023-02-15T16:44:33.394Z,67.65
2023-02-15T16:45:33.464Z,68.61
2023-02-15T16:46:33.409Z,69.12
2023-02-15T16:47:33.369Z,69.12
2023-02-15T16:48:33.315Z,68.68
2023-02-15T16:49:33.354Z,68.68
2023-02-15T16:50:33.704Z,68.48
2023-02-15T16:51:33.316Z,68.99
2023-02-15T16:52:33.266Z,69.53
2023-02-15T16:53:33.275Z,69.53
2023-02-15T16:54:33.445Z,69.74
2023-02-15T16:55:33.256Z,70.39
2023-02-15T16:56:33.819Z,70.59
2023-02-15T16:57:33.258Z,71.00
2023-02-15T16:58:33.202Z,71.24
2023-02-15T16:59:33.216Z,71.75
2023-02-15T17:00:33.244Z,72.38
2023-02-15T17:01:33.212Z,72.27
2023-02-15T17:02:54.429Z,72.58
2023-02-15T17:03:34.205Z,72.72
2023-02-15T17:04:33.110Z,72.61
2023-02-15T17:05:33.135Z,73.23
2023-02-15T17:06:33.090Z,73.54
2023-02-15T17:07:33.126Z,73.88
2023-02-15T17:08:34.413Z,74.19
2023-02-15T17:09:33.074Z,74.29
2023-02-15T17:10:33.036Z,74.70
2023-02-15T17:11:33.040Z,74.80
2023-02-15T17:12:33.202Z,75.15
2023-02-15T17:13:33.024Z,75.15
2023-02-15T17:15:28.027Z,75.35
2023-02-15T17:16:28.086Z,75.46
2023-02-15T17:17:28.009Z,75.60
2023-02-15T17:18:29.737Z,75.90
2023-02-15T17:19:27.979Z,75.81
2023-02-15T17:20:28.070Z,76.01
2023-02-15T17:21:27.945Z,76.25
2023-02-15T17:22:27.975Z,76.87
2023-02-15T17:23:27.932Z,77.08
2023-02-15T17:24:27.935Z,77.62
2023-02-15T17:25:28.274Z,78.14
2023-02-15T17:26:27.905Z,78.66
2023-02-15T17:27:27.893Z,78.97
2023-02-15T17:28:27.980Z,78.66
2023-02-15T17:29:27.848Z,78.28
2023-02-15T17:30:27.965Z,78.49
2023-02-15T17:31:27.999Z,79.11
2023-02-15T17:32:27.984Z,79.31
2023-02-15T17:33:27.804Z,79.41
2023-02-15T17:34:27.822Z,79.21
2023-02-15T17:35:28.409Z,79.76
2023-02-15T17:36:27.772Z,79.76
2023-02-15T17:37:27.821Z,80.07
2023-02-15T17:38:27.743Z,79.86
2023-02-15T17:39:27.742Z,79.86
2023-02-15T17:40:27.732Z,79.90
2023-02-15T17:41:27.736Z,80.62
2023-02-15T17:42:27.726Z,81.24
2023-02-15T17:43:27.658Z,81.80
2023-02-15T17:44:27.670Z,82.31
2023-02-15T17:45:27.865Z,83.04
2023-02-15T17:46:27.646Z,83.25
2023-02-15T17:47:27.678Z,83.55
2023-02-15T17:48:27.630Z,84.38
2023-02-15T17:49:27.599Z,84.00
2023-02-15T17:50:27.589Z,84.52
2023-02-15T17:51:32.286Z,84.63
2023-02-15T17:52:27.577Z,84.83
2023-02-15T17:53:27.537Z,85.45